Starship — V7EW5 — position and weather

sailwx.info

Track history (hours):
 
Tides and Currents Weather Stations Pressure Air Temp Water Temp Dewpoint Dewpoint Depression Visibility Wind Speed Wind Dir Waves Ship Positions

Starship

Last reported at 2018-Jun-10 21:26 UTC. Time now 2018-Jun-21 02:37 UTC.
Position N 24°36' W 076°53'.
Warning: this ship's position is 10 days out of date.

Length 43 m; draft 2.3 m.

Type: Pleasure craft. MMSI: 538070030.

Date/timePositionNaut miles runAvg speedWind from/ knotsBaromVisibWave heightAir tempDewpointWater temp
2018-Jun-10 21:26N 24°36' W 076°53'510.3
2018-Jun-10 20:58N 24°40' W 076°52'4 7.2
2018-Jun-10 20:28N 24°43' W 076°50'0 0.0
2018-Jun-10 19:59N 24°43' W 076°50'0 0.0
2018-Jun-10 19:29N 24°43' W 076°50'0 0.0
2018-Jun-10 18:21N 24°43' W 076°50'0 0.0
2018-Jun-10 17:57N 24°43' W 076°50'0 0.0
2018-Jun-10 17:27N 24°43' W 076°50'0 0.0
2018-Jun-10 16:58N 24°43' W 076°50'0 0.0
2018-Jun-10 16:28N 24°43' W 076°50'0 0.0
2018-Jun-09 21:07N 24°43' W 076°50'0 0.0
2018-Jun-09 20:57N 24°43' W 076°50'3 5.4
2018-Jun-09 20:27N 24°43' W 076°53'611.6
2018-Jun-09 19:57N 24°45' W 076°59'  
2018-Jun-06 01:26N 26°00' W 079°45'4 9.9
2018-Jun-06 01:00N 26°01' W 079°50'5 9.8
2018-Jun-06 00:30N 26°03' W 079°55'510.2
2018-Jun-06 00:00N 26°04' W 080°01'5 9.5
2018-Jun-05 23:30N 26°06' W 080°06'2 2.8
2018-Jun-05 22:57N 26°06' W 080°07'0 0.0
2018-Jun-05 22:25N 26°06' W 080°07'0 0.0
2018-Jun-05 21:58N 26°06' W 080°07'0 0.0
2018-Jun-05 21:22N 26°06' W 080°07'0 0.0
2018-Jun-05 20:59N 26°06' W 080°07'0 0.0
2018-Jun-05 20:17N 26°06' W 080°07'0 0.0
2018-Jun-05 19:53N 26°06' W 080°07'0 0.0
2018-Jun-05 19:06N 26°06' W 080°07'0 0.0
2018-Jun-05 18:54N 26°06' W 080°07'0 0.0
2018-Jun-05 18:30N 26°06' W 080°07'0 0.0
2018-Jun-05 17:37N 26°06' W 080°07'0 0.0
2018-Jun-05 17:25N 26°06' W 080°07'0 0.0
2018-Jun-05 15:32N 26°06' W 080°07'0 0.0
2018-Jun-05 15:13N 26°06' W 080°07'1 4.3
2018-Jun-05 15:01N 26°05' W 080°07'0 0.1
2018-Jun-05 14:29N 26°05' W 080°07'0 0.0
2018-Jun-05 13:56N 26°05' W 080°07'0 0.0
2018-Jun-05 13:30N 26°05' W 080°07'0 0.0
2018-Jun-05 12:54N 26°05' W 080°07'1 1.1
2018-Jun-05 12:03N 26°06' W 080°07'0 0.0
2018-Jun-05 11:51N 26°06' W 080°07'0 0.0
2018-Jun-04 11:23N 26°06' W 080°07'0 0.0
2018-Jun-04 10:53N 26°06' W 080°07'0 0.0
2018-Jun-04 10:29N 26°06' W 080°07'0 0.0
2018-Jun-04 09:54N 26°06' W 080°07'0 0.0
2018-Jun-04 08:55N 26°06' W 080°07'0 0.0
2018-Jun-04 07:11N 26°06' W 080°07'0 0.0
2018-Jun-03 09:49N 26°06' W 080°07'0 0.0
2018-Jun-03 09:19N 26°06' W 080°07'0 0.0
2018-Jun-03 08:56N 26°06' W 080°07'0 0.0
2018-Jun-03 08:08N 26°06' W 080°07'0 0.0
2018-Jun-03 07:56N 26°06' W 080°07'0 0.0
2018-Jun-02 09:26N 26°06' W 080°07'0 0.0
2018-Jun-02 08:59N 26°06' W 080°07'0 0.0
2018-Jun-02 08:24N 26°06' W 080°07'0 0.0
2018-Jun-02 08:00N 26°06' W 080°07'0 0.0
2018-Jun-01 21:31N 26°06' W 080°07'0 0.0
2018-Jun-01 21:07N 26°06' W 080°07'0 0.0
2018-Jun-01 20:41N 26°06' W 080°07'  
Track history (hours):
 
Tides and Currents Weather Stations Pressure Air Temp Water Temp Dewpoint Dewpoint Depression Visibility Wind Speed Wind Dir Waves Ship Positions

Starship

Last reported at 2018-Jun-10 21:26 UTC. Time now 2018-Jun-21 02:37 UTC.
Position N 24°36' W 076°53'.
Warning: this ship's position is 10 days out of date.

Length 43 m; draft 2.3 m.

Type: Pleasure craft. MMSI: 538070030.

Date/timePositionNaut miles runAvg speedWind from/ knotsBaromVisibWave heightAir tempDewpointWater temp
2018-Jun-10 21:26N 24°36' W 076°53'510.3
2018-Jun-10 20:58N 24°40' W 076°52'4 7.2
2018-Jun-10 20:28N 24°43' W 076°50'0 0.0
2018-Jun-10 19:59N 24°43' W 076°50'0 0.0
2018-Jun-10 19:29N 24°43' W 076°50'0 0.0
2018-Jun-10 18:21N 24°43' W 076°50'0 0.0
2018-Jun-10 17:57N 24°43' W 076°50'0 0.0
2018-Jun-10 17:27N 24°43' W 076°50'0 0.0
2018-Jun-10 16:58N 24°43' W 076°50'0 0.0
2018-Jun-10 16:28N 24°43' W 076°50'0 0.0
2018-Jun-09 21:07N 24°43' W 076°50'0 0.0
2018-Jun-09 20:57N 24°43' W 076°50'3 5.4
2018-Jun-09 20:27N 24°43' W 076°53'611.6
2018-Jun-09 19:57N 24°45' W 076°59'  
2018-Jun-06 01:26N 26°00' W 079°45'4 9.9
2018-Jun-06 01:00N 26°01' W 079°50'5 9.8
2018-Jun-06 00:30N 26°03' W 079°55'510.2
2018-Jun-06 00:00N 26°04' W 080°01'5 9.5
2018-Jun-05 23:30N 26°06' W 080°06'2 2.8
2018-Jun-05 22:57N 26°06' W 080°07'0 0.0
2018-Jun-05 22:25N 26°06' W 080°07'0 0.0
2018-Jun-05 21:58N 26°06' W 080°07'0 0.0
2018-Jun-05 21:22N 26°06' W 080°07'0 0.0
2018-Jun-05 20:59N 26°06' W 080°07'0 0.0
2018-Jun-05 20:17N 26°06' W 080°07'0 0.0
2018-Jun-05 19:53N 26°06' W 080°07'0 0.0
2018-Jun-05 19:06N 26°06' W 080°07'0 0.0
2018-Jun-05 18:54N 26°06' W 080°07'0 0.0
2018-Jun-05 18:30N 26°06' W 080°07'0 0.0
2018-Jun-05 17:37N 26°06' W 080°07'0 0.0
2018-Jun-05 17:25N 26°06' W 080°07'0 0.0
2018-Jun-05 15:32N 26°06' W 080°07'0 0.0
2018-Jun-05 15:13N 26°06' W 080°07'1 4.3
2018-Jun-05 15:01N 26°05' W 080°07'0 0.1
2018-Jun-05 14:29N 26°05' W 080°07'0 0.0
2018-Jun-05 13:56N 26°05' W 080°07'0 0.0
2018-Jun-05 13:30N 26°05' W 080°07'0 0.0
2018-Jun-05 12:54N 26°05' W 080°07'1 1.1
2018-Jun-05 12:03N 26°06' W 080°07'0 0.0
2018-Jun-05 11:51N 26°06' W 080°07'0 0.0
2018-Jun-04 11:23N 26°06' W 080°07'0 0.0
2018-Jun-04 10:53N 26°06' W 080°07'0 0.0
2018-Jun-04 10:29N 26°06' W 080°07'0 0.0
2018-Jun-04 09:54N 26°06' W 080°07'0 0.0
2018-Jun-04 08:55N 26°06' W 080°07'0 0.0
2018-Jun-04 07:11N 26°06' W 080°07'0 0.0
2018-Jun-03 09:49N 26°06' W 080°07'0 0.0
2018-Jun-03 09:19N 26°06' W 080°07'0 0.0
2018-Jun-03 08:56N 26°06' W 080°07'0 0.0
2018-Jun-03 08:08N 26°06' W 080°07'0 0.0
2018-Jun-03 07:56N 26°06' W 080°07'0 0.0
2018-Jun-02 09:26N 26°06' W 080°07'0 0.0
2018-Jun-02 08:59N 26°06' W 080°07'0 0.0
2018-Jun-02 08:24N 26°06' W 080°07'0 0.0
2018-Jun-02 08:00N 26°06' W 080°07'0 0.0
2018-Jun-01 21:31N 26°06' W 080°07'0 0.0
2018-Jun-01 21:07N 26°06' W 080°07'0 0.0
2018-Jun-01 20:41N 26°06' W 080°07'  

Dump ship's entire track history